createdAt,value
2022-08-28T00:01:29.661Z,100517.91
2022-08-28T00:04:02.104Z,100514.53
2022-08-28T00:06:31.414Z,100512.94
2022-08-28T00:09:00.684Z,100518.59
2022-08-28T00:11:29.781Z,100523.41
2022-08-28T00:13:58.682Z,100514.53
2022-08-28T00:16:28.022Z,100510.31
2022-08-28T00:18:57.070Z,100517.84
2022-08-28T00:21:27.170Z,100516.22
2022-08-28T00:23:56.606Z,100514.59
2022-08-28T00:26:39.221Z,100512.28
2022-08-28T00:29:08.922Z,100520.63
2022-08-28T00:31:38.551Z,100518.16
2022-08-28T00:34:09.002Z,100519.28
2022-08-28T00:36:41.443Z,100515.91
2022-08-28T00:39:10.874Z,100518.88
2022-08-28T00:41:41.840Z,100510.09
2022-08-28T00:44:14.498Z,100516.63
2022-08-28T00:46:46.219Z,100504.28
2022-08-28T00:49:17.823Z,100514.38
2022-08-28T00:52:11.023Z,100510.16
2022-08-28T00:54:58.947Z,100510.38
2022-08-28T00:57:32.836Z,100515.06
2022-08-28T01:00:01.964Z,100508.16
2022-08-28T01:02:32.059Z,100510.31
2022-08-28T01:05:01.295Z,100508.84
2022-08-28T01:07:32.145Z,100515.34
2022-08-28T01:10:01.506Z,100503.03
2022-08-28T01:12:31.709Z,100509.53
2022-08-28T01:15:03.489Z,100506.94
2022-08-28T01:17:35.561Z,100505.44
2022-08-28T01:20:10.991Z,100496.56
2022-08-28T01:22:47.575Z,100500.50
2022-08-28T01:25:23.473Z,100500.72
2022-08-28T01:27:53.061Z,100504.50
2022-08-28T01:30:24.250Z,100493.94
2022-08-28T01:32:56.210Z,100496.72
2022-08-28T01:35:28.413Z,100495.13
2022-08-28T01:37:58.534Z,100487.09
2022-08-28T01:40:32.076Z,100488.19
2022-08-28T01:43:10.197Z,100494.72
2022-08-28T01:45:39.562Z,100497.50
2022-08-28T01:48:09.603Z,100494.94
2022-08-28T01:50:39.482Z,100495.06
2022-08-28T01:53:11.928Z,100498.84
2022-08-28T01:55:43.978Z,100495.50
2022-08-28T01:58:14.130Z,100488.56
2022-08-28T02:00:44.448Z,100493.22
2022-08-28T02:03:13.807Z,100495.19
2022-08-28T02:05:43.157Z,100489.16
2022-08-28T02:08:14.088Z,100491.97
2022-08-28T02:10:45.268Z,100486.78
2022-08-28T02:13:15.021Z,100486.91
2022-08-28T02:15:44.576Z,100479.88
2022-08-28T02:18:14.611Z,100488.09
2022-08-28T02:20:44.374Z,100485.47
2022-08-28T02:23:13.867Z,100491.13
2022-08-28T02:25:44.508Z,100488.59
2022-08-28T02:28:14.405Z,100495.94
2022-08-28T02:30:43.650Z,100494.34
2022-08-28T02:33:12.410Z,100497.16
2022-08-28T02:35:42.882Z,100496.41
2022-08-28T02:38:12.558Z,100494.78
2022-08-28T02:40:43.671Z,100487.66
2022-08-28T02:43:12.702Z,100485.16
2022-08-28T02:45:41.688Z,100485.28
2022-08-28T02:48:15.659Z,100494.47
2022-08-28T02:50:47.165Z,100493.84
2022-08-28T02:53:16.575Z,100487.75
2022-08-28T02:55:46.756Z,100481.59
2022-08-28T02:58:15.899Z,100483.56
2022-08-28T03:00:44.894Z,100487.38
2022-08-28T03:03:13.836Z,100484.88
2022-08-28T03:05:42.922Z,100486.81
2022-08-28T03:08:12.029Z,100487.88
2022-08-28T03:11:19.095Z,100488.97
2022-08-28T03:13:50.499Z,100485.50
2022-08-28T03:16:19.779Z,100483.03
2022-08-28T03:18:48.534Z,100476.78
2022-08-28T03:21:17.663Z,100479.47
2022-08-28T03:23:45.735Z,100487.78
2022-08-28T03:26:18.087Z,100485.31
2022-08-28T03:28:52.047Z,100480.97
2022-08-28T03:31:23.731Z,100489.19
2022-08-28T03:33:54.051Z,100490.03
2022-08-28T03:36:30.080Z,100476.75
2022-08-28T03:39:03.290Z,100481.19
2022-08-28T03:41:32.979Z,100492.09
2022-08-28T03:44:05.113Z,100482.28
2022-08-28T03:46:35.315Z,100483.34
2022-08-28T03:49:06.259Z,100478.91
2022-08-28T03:51:36.473Z,100480.66
2022-08-28T03:54:06.407Z,100478.91
2022-08-28T03:56:35.499Z,100481.84
2022-08-28T03:59:06.755Z,100480.97
2022-08-28T04:01:38.296Z,100477.41
2022-08-28T04:04:07.618Z,100481.09
2022-08-28T04:06:36.671Z,100482.03
2022-08-28T04:09:07.012Z,100483.88
2022-08-28T04:11:42.705Z,100491.13
2022-08-28T04:14:13.694Z,100489.38
2022-08-28T04:16:42.914Z,100486.69
2022-08-28T04:19:12.291Z,100491.13
2022-08-28T04:21:41.356Z,100499.13
2022-08-28T04:24:10.481Z,100486.50
2022-08-28T04:26:39.966Z,100485.50
2022-08-28T04:29:09.097Z,100481.84
2022-08-28T04:31:39.975Z,100485.31
2022-08-28T04:34:10.954Z,100487.00
2022-08-28T04:36:40.464Z,100478.78
2022-08-28T04:39:11.174Z,100487.56
2022-08-28T04:41:40.602Z,100486.38
2022-08-28T04:44:10.039Z,100484.44
2022-08-28T04:46:40.586Z,100486.94
2022-08-28T04:49:09.728Z,100488.44
2022-08-28T04:51:42.049Z,100489.09
2022-08-28T04:54:12.086Z,100483.34
2022-08-28T04:56:42.020Z,100485.81
2022-08-28T04:59:12.765Z,100481.84
2022-08-28T05:01:44.235Z,100482.47
2022-08-28T05:04:13.812Z,100491.13
2022-08-28T05:06:46.321Z,100481.72
2022-08-28T05:09:18.080Z,100488.53
2022-08-28T05:11:48.603Z,100481.94
2022-08-28T05:14:18.034Z,100486.88
2022-08-28T05:16:51.171Z,100494.38
2022-08-28T05:19:21.525Z,100504.75
2022-08-28T05:21:50.684Z,100500.72
2022-08-28T05:24:20.176Z,100494.75
2022-08-28T05:26:49.334Z,100496.88
2022-08-28T05:29:19.005Z,100500.88
2022-08-28T05:31:49.462Z,100507.44
2022-08-28T05:34:19.021Z,100508.69
2022-08-28T05:36:47.853Z,100500.13
2022-08-28T05:39:17.640Z,100507.69
2022-08-28T05:41:47.574Z,100508.09
2022-08-28T05:44:18.664Z,100511.81
2022-08-28T05:46:51.047Z,100514.94
2022-08-28T05:49:20.989Z,100513.41
2022-08-28T05:51:51.199Z,100515.41
2022-08-28T05:54:20.494Z,100521.84
2022-08-28T05:56:49.391Z,100513.13
2022-08-28T05:59:18.513Z,100524.25
2022-08-28T06:01:50.660Z,100521.69
2022-08-28T06:04:23.796Z,100519.75
2022-08-28T06:06:53.180Z,100519.75
2022-08-28T06:09:29.075Z,100512.50
2022-08-28T06:12:01.943Z,100514.38
2022-08-28T06:14:32.718Z,100514.25
2022-08-28T06:17:05.460Z,100511.41
2022-08-28T06:19:41.085Z,100513.16
2022-08-28T06:22:12.426Z,100516.69
2022-08-28T06:24:42.208Z,100518.53
2022-08-28T06:27:11.193Z,100512.09
2022-08-28T06:29:40.476Z,100517.66
2022-08-28T06:32:11.095Z,100518.59
2022-08-28T06:34:40.568Z,100518.44
2022-08-28T06:37:10.362Z,100522.84
2022-08-28T06:39:39.568Z,100520.06
2022-08-28T06:42:08.351Z,100527.28
2022-08-28T06:44:39.054Z,100510.22
2022-08-28T06:47:08.928Z,100522.88
2022-08-28T06:49:39.260Z,100519.00
2022-08-28T06:52:08.328Z,100524.22
2022-08-28T06:54:37.629Z,100523.16
2022-08-28T06:57:07.380Z,100525.78
2022-08-28T06:59:37.632Z,100521.38
2022-08-28T07:02:07.438Z,100519.41
2022-08-28T07:04:38.791Z,100522.19
2022-08-28T07:07:10.510Z,100525.97
2022-08-28T07:09:47.958Z,100531.44
2022-08-28T07:12:17.183Z,100529.75
2022-08-28T07:14:46.451Z,100524.50
2022-08-28T07:17:15.408Z,100520.91
2022-08-28T07:19:46.316Z,100523.78
2022-08-28T07:22:15.311Z,100526.53
2022-08-28T07:24:44.284Z,100519.22
2022-08-28T07:27:18.325Z,100527.41
2022-08-28T07:29:48.198Z,100525.59
2022-08-28T07:32:17.439Z,100522.00
2022-08-28T07:34:47.945Z,100525.59
2022-08-28T07:37:17.912Z,100527.44
2022-08-28T07:39:47.410Z,100525.56
2022-08-28T07:42:36.412Z,100528.41
2022-08-28T07:45:05.226Z,100528.41
2022-08-28T07:47:34.290Z,100523.81
2022-08-28T07:50:04.837Z,100538.44
2022-08-28T07:52:37.460Z,100531.22
2022-08-28T07:55:08.786Z,100526.59
2022-08-28T07:57:38.006Z,100529.13
2022-08-28T08:00:08.329Z,100534.53
2022-08-28T08:02:40.577Z,100526.47
2022-08-28T08:05:11.729Z,100534.78
2022-08-28T08:07:43.975Z,100538.50
2022-08-28T08:10:19.995Z,100529.53
2022-08-28T08:12:49.842Z,100535.94
2022-08-28T08:15:21.577Z,100539.63
2022-08-28T08:17:51.879Z,100536.28
2022-08-28T08:20:22.658Z,100544.56
2022-08-28T08:22:51.995Z,100533.88
2022-08-28T08:25:20.996Z,100538.41
2022-08-28T08:27:51.491Z,100542.38
2022-08-28T08:30:20.991Z,100543.50
2022-08-28T08:32:49.918Z,100550.09
2022-08-28T08:35:19.186Z,100548.47
2022-08-28T08:37:49.956Z,100545.91
2022-08-28T08:40:20.739Z,100548.88
2022-08-28T08:42:55.601Z,100544.69
2022-08-28T08:45:26.766Z,100544.91
2022-08-28T08:47:57.122Z,100544.28
2022-08-28T08:50:29.772Z,100551.66
2022-08-28T08:53:24.309Z,100547.13
2022-08-28T08:55:55.748Z,100546.38
2022-08-28T08:58:31.062Z,100542.81
2022-08-28T09:01:06.180Z,100549.38
2022-08-28T09:03:53.023Z,100548.38
2022-08-28T09:06:31.024Z,100541.22
2022-08-28T09:09:07.513Z,100535.78
2022-08-28T09:11:52.218Z,100541.34
2022-08-28T09:14:38.600Z,100542.22
2022-08-28T09:17:09.768Z,100539.66
2022-08-28T09:19:39.121Z,100548.97
2022-08-28T09:22:08.118Z,100548.31
2022-08-28T09:24:40.789Z,100544.75
2022-08-28T09:27:22.904Z,100544.97
2022-08-28T09:29:58.881Z,100542.41
2022-08-28T09:32:34.573Z,100542.56
2022-08-28T09:35:09.375Z,100540.88
2022-08-28T09:37:39.232Z,100537.47
2022-08-28T09:40:22.624Z,100538.50
2022-08-28T09:43:25.151Z,100535.94
2022-08-28T09:45:58.672Z,100530.69
2022-08-28T09:48:35.761Z,100542.66
2022-08-28T09:51:07.908Z,100540.97
2022-08-28T09:53:39.377Z,100542.00
2022-08-28T09:56:16.618Z,100538.56
2022-08-28T09:58:51.041Z,100543.38
2022-08-28T10:01:44.750Z,100546.09
2022-08-28T10:04:38.681Z,100536.16
2022-08-28T10:07:13.724Z,100543.69
2022-08-28T10:09:51.468Z,100539.28
2022-08-28T10:12:36.376Z,100537.72
2022-08-28T10:15:11.372Z,100535.97
2022-08-28T10:17:50.435Z,100540.59
2022-08-28T10:20:26.876Z,100534.56
2022-08-28T10:23:02.983Z,100534.72
2022-08-28T10:25:40.191Z,100532.31
2022-08-28T10:28:28.169Z,100531.63
2022-08-28T10:31:02.913Z,100532.97
2022-08-28T10:33:50.474Z,100531.56
2022-08-28T10:36:34.607Z,100527.28
2022-08-28T10:39:19.047Z,100538.44
2022-08-28T10:41:52.364Z,100537.75
2022-08-28T10:44:27.778Z,100535.97
2022-08-28T10:46:59.892Z,100537.16
2022-08-28T10:49:35.580Z,100531.81
2022-08-28T10:52:09.843Z,100531.91
2022-08-28T10:54:44.200Z,100531.22
2022-08-28T10:57:31.116Z,100537.53
2022-08-28T11:00:05.857Z,100538.50
2022-08-28T11:02:39.309Z,100535.91
2022-08-28T11:05:11.224Z,100537.09
2022-08-28T11:07:46.535Z,100541.47
2022-08-28T11:10:21.091Z,100538.69
2022-08-28T11:12:53.001Z,100540.31
2022-08-28T11:15:43.405Z,100545.75
2022-08-28T11:18:41.542Z,100540.88
2022-08-28T11:21:21.086Z,100540.84
2022-08-28T11:23:57.596Z,100536.47
2022-08-28T11:26:39.580Z,100536.56
2022-08-28T11:29:09.512Z,100544.97
2022-08-28T11:31:42.298Z,100537.84
2022-08-28T11:34:52.503Z,100544.31
2022-08-28T11:37:40.510Z,100551.00
2022-08-28T11:40:19.706Z,100550.03
2022-08-28T11:42:49.484Z,100544.28
2022-08-28T11:45:21.549Z,100554.16
2022-08-28T11:47:56.630Z,100560.22
2022-08-28T11:50:53.973Z,100550.66
2022-08-28T11:53:49.630Z,100561.00
2022-08-28T11:56:50.747Z,100561.94
2022-08-28T11:59:47.902Z,100562.44
2022-08-28T12:02:51.054Z,100559.09
2022-08-28T12:05:56.505Z,100557.88
2022-08-28T12:09:13.177Z,100567.22
2022-08-28T12:12:15.075Z,100563.78
2022-08-28T12:15:08.567Z,100573.47
2022-08-28T12:17:54.110Z,100572.09
2022-08-28T12:20:36.449Z,100579.25
2022-08-28T12:23:21.901Z,100590.84
2022-08-28T12:25:59.220Z,100591.44
2022-08-28T12:28:33.032Z,100595.63
2022-08-28T12:31:53.335Z,100596.00
2022-08-28T12:34:31.256Z,100583.47
2022-08-28T12:37:01.581Z,100582.38
2022-08-28T12:39:33.694Z,100579.94
2022-08-28T12:42:04.567Z,100577.06
2022-08-28T12:44:35.092Z,100575.28
2022-08-28T12:47:04.405Z,100574.97
2022-08-28T12:49:36.372Z,100567.66
2022-08-28T12:52:16.788Z,100568.78
2022-08-28T12:54:47.133Z,100569.47
2022-08-28T12:57:19.179Z,100573.94
2022-08-28T12:59:51.550Z,100584.31
2022-08-28T13:02:27.759Z,100588.50
2022-08-28T13:05:01.734Z,100577.56
2022-08-28T13:07:35.360Z,100595.91
2022-08-28T13:10:19.936Z,100598.97
2022-08-28T13:12:58.881Z,100606.63
2022-08-28T13:15:52.236Z,100599.69
2022-08-28T13:18:45.389Z,100600.84
2022-08-28T13:21:37.287Z,100600.91
2022-08-28T13:24:37.035Z,100615.81
2022-08-28T13:27:10.287Z,100619.69
2022-08-28T13:29:57.146Z,100629.06
2022-08-28T13:32:31.749Z,100632.06
2022-08-28T13:35:28.941Z,100628.88
2022-08-28T13:38:00.632Z,100626.56
2022-08-28T13:43:24.249Z,100614.84
2022-08-28T13:45:54.211Z,100610.41
2022-08-28T13:48:27.239Z,100595.84
2022-08-28T13:51:03.138Z,100598.31
2022-08-28T13:53:34.420Z,100608.63
2022-08-28T13:56:05.721Z,100613.81
2022-08-28T13:58:35.031Z,100614.50
2022-08-28T14:01:05.686Z,100620.22
2022-08-28T14:03:38.642Z,100618.72
2022-08-28T14:06:11.701Z,100629.06
2022-08-28T14:08:41.706Z,100633.56
2022-08-28T14:11:13.099Z,100621.19
2022-08-28T14:13:47.224Z,100623.25
2022-08-28T14:16:26.170Z,100614.00
2022-08-28T14:18:57.007Z,100616.56
2022-08-28T14:21:26.159Z,100619.13
2022-08-28T14:23:55.319Z,100611.75
2022-08-28T14:26:24.361Z,100606.06
2022-08-28T14:28:53.659Z,100606.59
2022-08-28T14:31:25.557Z,100614.31
2022-08-28T14:34:02.110Z,100605.34
2022-08-28T14:36:33.004Z,100614.56
2022-08-28T14:39:06.149Z,100620.06
2022-08-28T14:41:35.954Z,100629.84
2022-08-28T14:44:05.664Z,100627.50
2022-08-28T14:46:37.920Z,100631.56
2022-08-28T14:49:10.976Z,100633.56
2022-08-28T14:51:42.436Z,100634.09
2022-08-28T14:54:13.238Z,100620.56
2022-08-28T14:56:43.411Z,100623.09
2022-08-28T14:59:20.688Z,100626.34
2022-08-28T15:01:53.979Z,100628.34
2022-08-28T15:04:26.150Z,100633.94
2022-08-28T15:06:59.433Z,100627.94
2022-08-28T15:09:28.943Z,100622.91
2022-08-28T15:11:57.974Z,100618.44
2022-08-28T15:14:27.993Z,100625.78
2022-08-28T15:16:57.165Z,100630.59
2022-08-28T15:19:30.061Z,100615.22
2022-08-28T15:21:59.689Z,100619.63
2022-08-28T15:24:31.479Z,100624.03
2022-08-28T15:27:01.541Z,100624.25
2022-08-28T15:29:31.391Z,100618.81
2022-08-28T15:32:01.319Z,100615.91
2022-08-28T15:34:31.944Z,100620.75
2022-08-28T15:37:01.279Z,100617.81
2022-08-28T15:39:49.665Z,100624.97
2022-08-28T15:42:18.715Z,100620.72
2022-08-28T15:44:48.020Z,100620.56
2022-08-28T15:47:17.170Z,100623.41
2022-08-28T15:49:54.369Z,100612.56
2022-08-28T15:52:25.009Z,100615.69
2022-08-28T15:54:54.637Z,100622.97
2022-08-28T15:57:23.582Z,100620.41
2022-08-28T15:59:52.658Z,100628.84
2022-08-28T16:02:25.128Z,100636.53
2022-08-28T16:04:55.956Z,100625.41
2022-08-28T16:07:26.258Z,100625.13
2022-08-28T16:09:55.233Z,100631.13
2022-08-28T16:12:25.537Z,100632.03
2022-08-28T16:14:54.925Z,100637.63
2022-08-28T16:17:24.090Z,100642.53
2022-08-28T16:19:55.522Z,100643.59
2022-08-28T16:22:24.783Z,100645.31
2022-08-28T16:24:53.958Z,100648.69
2022-08-28T16:27:24.441Z,100643.53
2022-08-28T16:29:53.981Z,100653.44
2022-08-28T16:32:23.998Z,100659.50
2022-08-28T16:34:54.723Z,100664.34
2022-08-28T16:37:23.749Z,100674.78
2022-08-28T16:39:56.096Z,100664.69
2022-08-28T16:42:27.699Z,100666.09
2022-08-28T16:45:01.211Z,100665.72
2022-08-28T16:47:33.774Z,100671.75
2022-08-28T16:50:08.792Z,100673.69
2022-08-28T16:52:38.084Z,100669.28
2022-08-28T16:55:09.748Z,100670.53
2022-08-28T16:57:40.179Z,100676.94
2022-08-28T17:00:13.496Z,100675.56
2022-08-28T17:02:45.371Z,100680.16
2022-08-28T17:05:18.964Z,100684.63
2022-08-28T17:07:48.790Z,100685.72
2022-08-28T17:10:22.049Z,100689.06
2022-08-28T17:12:51.146Z,100683.94
2022-08-28T17:15:22.858Z,100682.91
2022-08-28T17:17:52.081Z,100678.59
2022-08-28T17:20:40.114Z,100678.72
2022-08-28T17:23:09.404Z,100682.25
2022-08-28T17:25:38.781Z,100682.13
2022-08-28T17:28:07.759Z,100679.97
2022-08-28T17:30:37.031Z,100679.66
2022-08-28T17:33:07.192Z,100682.75
2022-08-28T17:35:41.808Z,100682.09
2022-08-28T17:38:11.705Z,100685.69
2022-08-28T17:40:40.918Z,100683.66
2022-08-28T17:43:10.352Z,100683.38
2022-08-28T17:45:39.836Z,100681.72
2022-08-28T17:48:08.988Z,100687.25
2022-08-28T17:50:39.528Z,100682.69
2022-08-28T17:53:08.923Z,100685.81
2022-08-28T17:55:38.324Z,100686.28
2022-08-28T17:58:07.462Z,100688.69
2022-08-28T18:00:36.751Z,100692.06
2022-08-28T18:03:05.817Z,100697.69
2022-08-28T18:05:35.168Z,100694.84
2022-08-28T18:08:06.651Z,100690.44
2022-08-28T18:10:35.968Z,100705.25
2022-08-28T18:13:06.022Z,100701.53
2022-08-28T18:15:36.811Z,100711.63
2022-08-28T18:18:06.407Z,100709.03
2022-08-28T18:20:35.381Z,100711.91
2022-08-28T18:23:06.056Z,100713.81
2022-08-28T18:25:50.481Z,100718.97
2022-08-28T18:28:23.311Z,100722.66
2022-08-28T18:30:53.905Z,100720.78
2022-08-28T18:33:30.964Z,100719.75
2022-08-28T18:36:00.772Z,100725.94
2022-08-28T18:38:35.519Z,100719.16
2022-08-28T18:41:07.566Z,100728.78
2022-08-28T18:43:38.112Z,100725.59
2022-08-28T18:46:09.314Z,100726.75
2022-08-28T18:48:39.273Z,100727.03
2022-08-28T18:51:09.395Z,100728.16
2022-08-28T18:53:43.224Z,100723.00
2022-08-28T18:56:12.947Z,100732.47
2022-08-28T18:58:42.831Z,100733.00
2022-08-28T19:01:12.315Z,100723.63
2022-08-28T19:03:41.684Z,100719.59
2022-08-28T19:06:13.449Z,100728.16
2022-08-28T19:08:45.977Z,100727.72
2022-08-28T19:11:16.367Z,100719.09
2022-08-28T19:13:45.864Z,100721.66
2022-08-28T19:16:19.590Z,100718.38
2022-08-28T19:18:52.759Z,100719.91
2022-08-28T19:21:23.662Z,100722.03
2022-08-28T19:23:55.946Z,100727.91
2022-08-28T19:26:26.290Z,100729.91
2022-08-28T19:28:56.961Z,100727.47
2022-08-28T19:31:28.028Z,100727.97
2022-08-28T19:33:57.387Z,100733.97
2022-08-28T19:36:29.621Z,100730.66
2022-08-28T19:39:01.090Z,100740.97
2022-08-28T19:41:30.367Z,100745.94
2022-08-28T19:43:59.472Z,100749.06
2022-08-28T19:46:29.702Z,100750.16
2022-08-28T19:49:01.308Z,100741.38
2022-08-28T19:51:30.814Z,100748.97
2022-08-28T19:54:02.354Z,100754.66
2022-08-28T19:56:33.235Z,100756.50
2022-08-28T19:59:04.255Z,100753.69
2022-08-28T20:01:38.310Z,100757.66
2022-08-28T20:04:09.496Z,100751.75
2022-08-28T20:06:39.581Z,100758.44
2022-08-28T20:09:12.950Z,100750.41
2022-08-28T20:11:44.998Z,100769.56
2022-08-28T20:14:15.694Z,100758.97
2022-08-28T20:16:47.112Z,100760.97
2022-08-28T20:19:16.948Z,100755.63
2022-08-28T20:21:49.106Z,100754.03
2022-08-28T20:24:24.123Z,100753.19
2022-08-28T20:26:53.938Z,100752.56
2022-08-28T20:29:24.815Z,100754.53
2022-08-28T20:31:54.257Z,100751.97
2022-08-28T20:34:23.591Z,100750.34
2022-08-28T20:36:52.957Z,100751.63
2022-08-28T20:39:24.636Z,100753.59
2022-08-28T20:41:53.858Z,100753.88
2022-08-28T20:44:23.905Z,100755.72
2022-08-28T20:46:53.828Z,100757.56
2022-08-28T20:49:25.540Z,100748.69
2022-08-28T20:51:56.877Z,100755.09
2022-08-28T20:54:30.793Z,100757.09
2022-08-28T20:57:02.729Z,100751.66
2022-08-28T20:59:37.205Z,100752.81
2022-08-28T21:02:10.981Z,100751.94
2022-08-28T21:04:42.246Z,100744.88
2022-08-28T21:07:11.744Z,100750.19
2022-08-28T21:10:04.491Z,100741.28
2022-08-28T21:12:36.464Z,100744.88
2022-08-28T21:15:07.387Z,100738.84
2022-08-28T21:17:38.117Z,100735.50
2022-08-28T21:20:10.184Z,100741.81
2022-08-28T21:22:40.688Z,100742.06
2022-08-28T21:25:13.136Z,100747.75
2022-08-28T21:27:42.726Z,100748.75
2022-08-28T21:30:14.262Z,100756.16
2022-08-28T21:32:44.029Z,100747.25
2022-08-28T21:35:14.636Z,100751.06
2022-08-28T21:37:43.929Z,100754.66
2022-08-28T21:40:18.007Z,100757.28
2022-08-28T21:42:47.267Z,100760.09
2022-08-28T21:45:16.619Z,100764.56
2022-08-28T21:47:45.598Z,100768.25
2022-08-28T21:50:14.499Z,100769.38
2022-08-28T21:52:43.779Z,100770.22
2022-08-28T21:55:16.263Z,100784.84
2022-08-28T21:57:45.508Z,100803.97
2022-08-28T22:00:16.401Z,100814.97
2022-08-28T22:02:45.710Z,100826.06
2022-08-28T22:05:15.698Z,100827.81
2022-08-28T22:07:45.112Z,100828.78
2022-08-28T22:10:15.708Z,100827.09
2022-08-28T22:12:44.871Z,100828.19
2022-08-28T22:15:13.576Z,100824.59
2022-08-28T22:17:42.460Z,100833.50
2022-08-28T22:20:11.640Z,100831.78
2022-08-28T22:22:58.016Z,100827.22
2022-08-28T22:25:28.778Z,100826.34
2022-08-28T22:27:58.420Z,100830.16
2022-08-28T22:30:27.555Z,100824.88
2022-08-28T22:32:56.740Z,100828.69
2022-08-28T22:35:25.793Z,100823.41
2022-08-28T22:37:54.669Z,100823.41
2022-08-28T22:40:24.920Z,100825.25
2022-08-28T22:42:55.577Z,100825.59
2022-08-28T22:45:25.657Z,100825.59
2022-08-28T22:47:55.444Z,100827.59
2022-08-28T22:50:24.624Z,100822.38
2022-08-28T22:52:53.862Z,100820.66
2022-08-28T22:55:23.652Z,100819.06
2022-08-28T22:57:54.151Z,100818.19
2022-08-28T23:00:27.675Z,100812.16
2022-08-28T23:02:57.848Z,100815.88
2022-08-28T23:05:29.045Z,100818.69
2022-08-28T23:07:58.655Z,100825.00
2022-08-28T23:10:48.387Z,100836.00
2022-08-28T23:13:19.571Z,100837.97
2022-08-28T23:15:49.794Z,100845.38
2022-08-28T23:18:20.408Z,100856.25
2022-08-28T23:20:50.552Z,100848.19
2022-08-28T23:23:21.064Z,100854.72
2022-08-28T23:25:50.677Z,100853.00
2022-08-28T23:28:21.454Z,100854.97
2022-08-28T23:30:51.024Z,100849.56
2022-08-28T23:33:23.938Z,100856.97
2022-08-28T23:35:53.716Z,100860.66
2022-08-28T23:38:23.127Z,100857.94
2022-08-28T23:40:52.486Z,100852.63
2022-08-28T23:43:23.133Z,100855.47
2022-08-28T23:45:52.207Z,100852.00
2022-08-28T23:48:21.679Z,100852.00
2022-08-28T23:50:51.002Z,100833.09
2022-08-28T23:53:19.899Z,100836.81
2022-08-28T23:55:49.753Z,100822.50
2022-08-28T23:58:20.769Z,100825.34
